sensor_id;sensor_type;location;lat;lon;timestamp;pressure;altitude;pressure_sealevel;temperature;humidity
19795;BME280;10057;59.402;17.866;2023-05-22T00:01:44;102362.94;;;13.90;47.43
19795;BME280;10057;59.402;17.866;2023-05-22T00:04:12;102362.03;;;13.91;47.73
19795;BME280;10057;59.402;17.866;2023-05-22T00:06:42;102357.63;;;13.90;47.48
19795;BME280;10057;59.402;17.866;2023-05-22T00:09:09;102361.22;;;13.87;47.81
19795;BME280;10057;59.402;17.866;2023-05-22T00:11:36;102365.75;;;13.85;47.74
19795;BME280;10057;59.402;17.866;2023-05-22T00:14:03;102366.69;;;13.83;47.60
19795;BME280;10057;59.402;17.866;2023-05-22T00:16:30;102364.16;;;13.77;47.81
19795;BME280;10057;59.402;17.866;2023-05-22T00:18:57;102364.38;;;13.67;48.23
19795;BME280;10057;59.402;17.866;2023-05-22T00:21:24;102352.19;;;13.59;48.40
19795;BME280;10057;59.402;17.866;2023-05-22T00:23:53;102367.56;;;13.47;48.46
19795;BME280;10057;59.402;17.866;2023-05-22T00:26:19;102354.50;;;13.35;48.44
19795;BME280;10057;59.402;17.866;2023-05-22T00:28:48;102355.44;;;13.34;48.70
19795;BME280;10057;59.402;17.866;2023-05-22T00:31:15;102350.09;;;13.34;48.60
19795;BME280;10057;59.402;17.866;2023-05-22T00:33:42;102358.19;;;13.30;48.26
19795;BME280;10057;59.402;17.866;2023-05-22T00:36:08;102357.31;;;13.29;48.50
19795;BME280;10057;59.402;17.866;2023-05-22T00:38:35;102359.03;;;13.32;48.54
19795;BME280;10057;59.402;17.866;2023-05-22T00:41:04;102353.69;;;13.32;48.57
19795;BME280;10057;59.402;17.866;2023-05-22T00:43:32;102352.09;;;13.24;48.78
19795;BME280;10057;59.402;17.866;2023-05-22T00:45:59;102355.72;;;13.20;49.03
19795;BME280;10057;59.402;17.866;2023-05-22T00:48:26;102355.78;;;13.16;49.38
19795;BME280;10057;59.402;17.866;2023-05-22T00:50:54;102351.38;;;13.15;49.04
19795;BME280;10057;59.402;17.866;2023-05-22T00:53:24;102348.78;;;13.13;49.47
19795;BME280;10057;59.402;17.866;2023-05-22T00:55:52;102349.63;;;13.14;49.10
19795;BME280;10057;59.402;17.866;2023-05-22T00:58:20;102353.25;;;13.11;49.39
19795;BME280;10057;59.402;17.866;2023-05-22T01:00:47;102348.97;;;13.04;49.58
19795;BME280;10057;59.402;17.866;2023-05-22T01:03:15;102356.28;;;12.94;49.81
19795;BME280;10057;59.402;17.866;2023-05-22T01:05:43;102352.84;;;12.88;49.73
19795;BME280;10057;59.402;17.866;2023-05-22T01:08:11;102364.56;;;12.80;50.09
19795;BME280;10057;59.402;17.866;2023-05-22T01:10:38;102356.72;;;12.73;50.16
19795;BME280;10057;59.402;17.866;2023-05-22T01:13:33;102359.56;;;12.64;50.30
19795;BME280;10057;59.402;17.866;2023-05-22T01:18:45;102353.38;;;12.63;50.40
19795;BME280;10057;59.402;17.866;2023-05-22T01:21:20;102348.97;;;12.62;50.51
19795;BME280;10057;59.402;17.866;2023-05-22T01:31:40;102341.00;;;12.61;51.10
19795;BME280;10057;59.402;17.866;2023-05-22T01:34:10;102339.22;;;12.61;50.79
19795;BME280;10057;59.402;17.866;2023-05-22T01:36:38;102346.25;;;12.64;50.79
19795;BME280;10057;59.402;17.866;2023-05-22T01:39:06;102338.31;;;12.62;50.94
19795;BME280;10057;59.402;17.866;2023-05-22T01:41:33;102348.22;;;12.55;50.85
19795;BME280;10057;59.402;17.866;2023-05-22T01:44:00;102353.69;;;12.48;51.16
19795;BME280;10057;59.402;17.866;2023-05-22T01:46:28;102348.38;;;12.46;51.23
19795;BME280;10057;59.402;17.866;2023-05-22T01:48:56;102352.84;;;12.46;51.10
19795;BME280;10057;59.402;17.866;2023-05-22T01:51:55;102349.19;;;12.50;51.25
19795;BME280;10057;59.402;17.866;2023-05-22T01:54:28;102357.22;;;12.48;51.27
19795;BME280;10057;59.402;17.866;2023-05-22T01:57:15;102353.75;;;12.45;51.34
19795;BME280;10057;59.402;17.866;2023-05-22T01:59:47;102351.06;;;12.46;51.52
19795;BME280;10057;59.402;17.866;2023-05-22T02:02:18;102351.06;;;12.46;51.38
19795;BME280;10057;59.402;17.866;2023-05-22T02:04:53;102351.16;;;12.42;51.26
19795;BME280;10057;59.402;17.866;2023-05-22T02:07:21;102345.03;;;12.37;51.42
19795;BME280;10057;59.402;17.866;2023-05-22T02:09:51;102346.09;;;12.28;51.28
19795;BME280;10057;59.402;17.866;2023-05-22T02:12:20;102346.19;;;12.22;51.59
19795;BME280;10057;59.402;17.866;2023-05-22T02:14:47;102344.47;;;12.19;51.79
19795;BME280;10057;59.402;17.866;2023-05-22T02:17:14;102349.81;;;12.18;52.26
19795;BME280;10057;59.402;17.866;2023-05-22T02:19:43;102345.44;;;12.15;52.09
19795;BME280;10057;59.402;17.866;2023-05-22T02:22:10;102349.00;;;12.14;52.47
19795;BME280;10057;59.402;17.866;2023-05-22T02:24:46;102349.88;;;12.15;52.49
19795;BME280;10057;59.402;17.866;2023-05-22T02:27:13;102349.94;;;12.10;52.32
19795;BME280;10057;59.402;17.866;2023-05-22T02:29:39;102354.47;;;12.05;52.55
19795;BME280;10057;59.402;17.866;2023-05-22T02:32:06;102350.97;;;12.03;52.82
19795;BME280;10057;59.402;17.866;2023-05-22T02:34:33;102356.38;;;11.98;53.02
19795;BME280;10057;59.402;17.866;2023-05-22T02:37:00;102349.31;;;11.96;53.28
19795;BME280;10057;59.402;17.866;2023-05-22T02:39:30;102343.13;;;11.97;53.26
19795;BME280;10057;59.402;17.866;2023-05-22T02:41:56;102343.94;;;12.00;53.25
19795;BME280;10057;59.402;17.866;2023-05-22T02:44:23;102342.94;;;12.06;53.04
19795;BME280;10057;59.402;17.866;2023-05-22T02:46:50;102342.91;;;12.07;53.39
19795;BME280;10057;59.402;17.866;2023-05-22T02:49:17;102343.78;;;12.08;53.15
19795;BME280;10057;59.402;17.866;2023-05-22T02:51:44;102338.53;;;12.05;53.48
19795;BME280;10057;59.402;17.866;2023-05-22T02:54:14;102339.44;;;12.02;53.58
19795;BME280;10057;59.402;17.866;2023-05-22T02:56:42;102334.16;;;12.01;53.57
19795;BME280;10057;59.402;17.866;2023-05-22T02:59:09;102335.00;;;12.03;53.85
19795;BME280;10057;59.402;17.866;2023-05-22T03:01:35;102336.84;;;12.01;53.82
19795;BME280;10057;59.402;17.866;2023-05-22T03:04:04;102332.47;;;11.97;53.95
19795;BME280;10057;59.402;17.866;2023-05-22T03:06:32;102337.84;;;11.94;53.95
19795;BME280;10057;59.402;17.866;2023-05-22T03:09:00;102331.66;;;11.92;54.22
19795;BME280;10057;59.402;17.866;2023-05-22T03:11:30;102336.22;;;11.83;54.37
19795;BME280;10057;59.402;17.866;2023-05-22T03:13:57;102338.16;;;11.74;54.64
19795;BME280;10057;59.402;17.866;2023-05-22T03:16:23;102339.06;;;11.71;54.98
19795;BME280;10057;59.402;17.866;2023-05-22T03:18:54;102340.78;;;11.75;54.99
19795;BME280;10057;59.402;17.866;2023-05-22T03:21:32;102338.97;;;11.77;54.93
19795;BME280;10057;59.402;17.866;2023-05-22T03:23:58;102338.09;;;11.75;54.75
19795;BME280;10057;59.402;17.866;2023-05-22T03:26:25;102340.72;;;11.78;55.11
19795;BME280;10057;59.402;17.866;2023-05-22T03:28:54;102334.47;;;11.84;55.27
19795;BME280;10057;59.402;17.866;2023-05-22T03:31:24;102337.97;;;11.86;54.96
19795;BME280;10057;59.402;17.866;2023-05-22T03:33:51;102335.34;;;11.84;55.02
19795;BME280;10057;59.402;17.866;2023-05-22T03:36:19;102331.72;;;11.89;55.33
19795;BME280;10057;59.402;17.866;2023-05-22T03:38:46;102335.13;;;11.97;55.09
19795;BME280;10057;59.402;17.866;2023-05-22T03:41:13;102330.66;;;11.99;55.48
19795;BME280;10057;59.402;17.866;2023-05-22T03:43:40;102326.13;;;12.04;55.25
19795;BME280;10057;59.402;17.866;2023-05-22T03:46:10;102326.91;;;12.09;55.27
19795;BME280;10057;59.402;17.866;2023-05-22T03:48:37;102332.22;;;12.11;55.56
19795;BME280;10057;59.402;17.866;2023-05-22T03:51:04;102332.25;;;12.09;55.75
19795;BME280;10057;59.402;17.866;2023-05-22T03:53:31;102330.59;;;12.02;55.74
19795;BME280;10057;59.402;17.866;2023-05-22T03:55:58;102327.00;;;12.04;55.98
19795;BME280;10057;59.402;17.866;2023-05-22T03:58:25;102320.75;;;12.07;55.97
19795;BME280;10057;59.402;17.866;2023-05-22T04:00:55;102318.94;;;12.09;56.12
19795;BME280;10057;59.402;17.866;2023-05-22T04:03:27;102321.59;;;12.11;55.99
19795;BME280;10057;59.402;17.866;2023-05-22T04:05:54;102316.25;;;12.11;56.15
19795;BME280;10057;59.402;17.866;2023-05-22T04:08:22;102322.47;;;12.09;56.41
19795;BME280;10057;59.402;17.866;2023-05-22T04:10:49;102323.34;;;12.10;56.37
19795;BME280;10057;59.402;17.866;2023-05-22T04:13:15;102315.34;;;12.12;56.72
19795;BME280;10057;59.402;17.866;2023-05-22T04:15:42;102323.28;;;12.13;56.75
19795;BME280;10057;59.402;17.866;2023-05-22T04:18:12;102322.41;;;12.14;56.58
19795;BME280;10057;59.402;17.866;2023-05-22T04:20:38;102324.16;;;12.15;56.95
19795;BME280;10057;59.402;17.866;2023-05-22T04:23:06;102317.03;;;12.17;57.26
19795;BME280;10057;59.402;17.866;2023-05-22T04:25:33;102319.66;;;12.19;57.08
19795;BME280;10057;59.402;17.866;2023-05-22T04:28:00;102327.53;;;12.25;57.06
19795;BME280;10057;59.402;17.866;2023-05-22T04:30:32;102322.91;;;12.33;57.04
19795;BME280;10057;59.402;17.866;2023-05-22T04:32:59;102310.38;;;12.40;57.01
19795;BME280;10057;59.402;17.866;2023-05-22T04:35:27;102319.97;;;12.47;57.00
19795;BME280;10057;59.402;17.866;2023-05-22T04:37:55;102309.16;;;12.54;56.82
19795;BME280;10057;59.402;17.866;2023-05-22T04:40:22;102316.06;;;12.65;56.93
19795;BME280;10057;59.402;17.866;2023-05-22T04:42:49;102310.59;;;12.72;56.76
19795;BME280;10057;59.402;17.866;2023-05-22T04:45:19;102313.03;;;12.81;57.02
19795;BME280;10057;59.402;17.866;2023-05-22T04:47:51;102309.25;;;12.92;56.89
19795;BME280;10057;59.402;17.866;2023-05-22T04:50:21;102313.41;;;13.05;56.69
19795;BME280;10057;59.402;17.866;2023-05-22T04:52:49;102305.16;;;13.17;56.45
19795;BME280;10057;59.402;17.866;2023-05-22T04:55:16;102301.34;;;13.29;56.28
19795;BME280;10057;59.402;17.866;2023-05-22T04:57:45;102301.94;;;13.42;56.06
19795;BME280;10057;59.402;17.866;2023-05-22T05:00:13;102292.78;;;13.52;56.15
19795;BME280;10057;59.402;17.866;2023-05-22T05:02:42;102290.72;;;13.63;55.83
19795;BME280;10057;59.402;17.866;2023-05-22T05:05:09;102282.44;;;13.74;55.83
19795;BME280;10057;59.402;17.866;2023-05-22T05:07:37;102283.06;;;13.84;55.77
19795;BME280;10057;59.402;17.866;2023-05-22T05:10:04;102281.03;;;13.95;55.53
19795;BME280;10057;59.402;17.866;2023-05-22T05:12:32;102276.28;;;14.05;55.47
19795;BME280;10057;59.402;17.866;2023-05-22T05:14:59;102273.34;;;14.15;55.42
19795;BME280;10057;59.402;17.866;2023-05-22T05:17:26;102274.84;;;14.24;55.28
19795;BME280;10057;59.402;17.866;2023-05-22T05:19:53;102276.31;;;14.36;55.48
19795;BME280;10057;59.402;17.866;2023-05-22T05:22:19;102267.22;;;14.43;55.15
19795;BME280;10057;59.402;17.866;2023-05-22T05:24:46;102266.94;;;14.52;55.11
19795;BME280;10057;59.402;17.866;2023-05-22T05:27:13;102267.56;;;14.62;55.12
19795;BME280;10057;59.402;17.866;2023-05-22T05:29:40;102271.75;;;14.71;55.45
19795;BME280;10057;59.402;17.866;2023-05-22T05:32:07;102269.78;;;14.77;55.25
19795;BME280;10057;59.402;17.866;2023-05-22T05:34:37;102266.88;;;14.85;55.35
19795;BME280;10057;59.402;17.866;2023-05-22T05:37:04;102259.44;;;14.95;55.33
19795;BME280;10057;59.402;17.866;2023-05-22T05:39:31;102251.19;;;15.02;55.26
19795;BME280;10057;59.402;17.866;2023-05-22T05:41:57;102256.25;;;15.11;55.06
19795;BME280;10057;59.402;17.866;2023-05-22T05:44:25;102249.75;;;15.19;54.96
19795;BME280;10057;59.402;17.866;2023-05-22T05:46:52;102249.34;;;15.31;54.60
19795;BME280;10057;59.402;17.866;2023-05-22T05:49:19;102240.09;;;15.41;54.43
19795;BME280;10057;59.402;17.866;2023-05-22T05:51:46;102249.50;;;15.53;53.87
19795;BME280;10057;59.402;17.866;2023-05-22T05:54:12;102249.06;;;15.67;53.99
19795;BME280;10057;59.402;17.866;2023-05-22T05:56:39;102247.75;;;15.78;53.78
19795;BME280;10057;59.402;17.866;2023-05-22T05:59:06;102248.19;;;15.91;53.34
19795;BME280;10057;59.402;17.866;2023-05-22T06:01:33;102243.31;;;16.02;53.14
19795;BME280;10057;59.402;17.866;2023-05-22T06:04:01;102250.06;;;16.14;52.85
19795;BME280;10057;59.402;17.866;2023-05-22T06:06:30;102248.69;;;16.27;52.63
19795;BME280;10057;59.402;17.866;2023-05-22T06:09:05;102250.00;;;16.39;52.62
19795;BME280;10057;59.402;17.866;2023-05-22T06:11:32;102247.03;;;16.47;52.61
19795;BME280;10057;59.402;17.866;2023-05-22T06:14:03;102241.38;;;16.54;52.49
19795;BME280;10057;59.402;17.866;2023-05-22T06:16:30;102240.97;;;16.65;52.39
19795;BME280;10057;59.402;17.866;2023-05-22T06:18:58;102235.22;;;16.76;52.04
19795;BME280;10057;59.402;17.866;2023-05-22T06:21:25;102242.84;;;16.87;51.56
19795;BME280;10057;59.402;17.866;2023-05-22T06:23:52;102235.19;;;16.99;51.30
19795;BME280;10057;59.402;17.866;2023-05-22T06:26:18;102242.84;;;17.09;50.91
19795;BME280;10057;59.402;17.866;2023-05-22T06:28:45;102246.88;;;17.19;50.76
19795;BME280;10057;59.402;17.866;2023-05-22T06:31:12;102244.78;;;17.27;50.26
19795;BME280;10057;59.402;17.866;2023-05-22T06:33:39;102238.97;;;17.38;50.21
19795;BME280;10057;59.402;17.866;2023-05-22T06:36:09;102240.38;;;17.46;49.97
19795;BME280;10057;59.402;17.866;2023-05-22T06:38:37;102236.44;;;17.55;49.67
19795;BME280;10057;59.402;17.866;2023-05-22T06:41:05;102237.81;;;17.64;49.31
19795;BME280;10057;59.402;17.866;2023-05-22T06:43:31;102233.97;;;17.71;49.22
19795;BME280;10057;59.402;17.866;2023-05-22T06:45:58;102238.06;;;17.80;48.95
19795;BME280;10057;59.402;17.866;2023-05-22T06:48:25;102238.59;;;17.88;48.63
19795;BME280;10057;59.402;17.866;2023-05-22T06:50:52;102240.03;;;17.96;48.39
19795;BME280;10057;59.402;17.866;2023-05-22T06:53:18;102232.47;;;18.05;47.99
19795;BME280;10057;59.402;17.866;2023-05-22T06:55:45;102231.25;;;18.12;47.78
19795;BME280;10057;59.402;17.866;2023-05-22T06:58:12;102235.44;;;18.19;47.77
19795;BME280;10057;59.402;17.866;2023-05-22T07:00:39;102231.44;;;18.28;47.59
19795;BME280;10057;59.402;17.866;2023-05-22T07:03:06;102233.84;;;18.34;47.12
19795;BME280;10057;59.402;17.866;2023-05-22T07:05:33;102238.06;;;18.39;46.88
19795;BME280;10057;59.402;17.866;2023-05-22T07:07:59;102234.16;;;18.46;46.66
19795;BME280;10057;59.402;17.866;2023-05-22T07:10:27;102233.84;;;18.53;46.36
19795;BME280;10057;59.402;17.866;2023-05-22T07:12:54;102235.34;;;18.60;46.39
19795;BME280;10057;59.402;17.866;2023-05-22T07:15:20;102230.44;;;18.68;46.20
19795;BME280;10057;59.402;17.866;2023-05-22T07:17:48;102230.09;;;18.76;46.08
19795;BME280;10057;59.402;17.866;2023-05-22T07:20:15;102226.16;;;18.83;45.95
19795;BME280;10057;59.402;17.866;2023-05-22T07:22:43;102228.56;;;18.89;45.65
19795;BME280;10057;59.402;17.866;2023-05-22T07:25:09;102222.91;;;18.95;45.49
19795;BME280;10057;59.402;17.866;2023-05-22T07:27:36;102221.66;;;19.02;45.45
19795;BME280;10057;59.402;17.866;2023-05-22T07:30:03;102214.16;;;19.09;45.28
19795;BME280;10057;59.402;17.866;2023-05-22T07:32:30;102216.53;;;19.15;45.11
19795;BME280;10057;59.402;17.866;2023-05-22T07:34:57;102209.91;;;19.22;44.77
19795;BME280;10057;59.402;17.866;2023-05-22T07:37:24;102206.00;;;19.28;44.64
19795;BME280;10057;59.402;17.866;2023-05-22T07:39:51;102210.22;;;19.33;44.33
19795;BME280;10057;59.402;17.866;2023-05-22T07:42:18;102210.88;;;19.38;44.10
19795;BME280;10057;59.402;17.866;2023-05-22T07:44:45;102201.53;;;19.46;44.08
19795;BME280;10057;59.402;17.866;2023-05-22T07:47:11;102210.16;;;19.52;43.58
19795;BME280;10057;59.402;17.866;2023-05-22T07:49:38;102214.34;;;19.58;43.69
19795;BME280;10057;59.402;17.866;2023-05-22T07:52:05;102206.78;;;19.66;43.32
19795;BME280;10057;59.402;17.866;2023-05-22T07:54:32;102204.69;;;19.71;43.13
19795;BME280;10057;59.402;17.866;2023-05-22T07:56:59;102191.88;;;19.76;43.11
19795;BME280;10057;59.402;17.866;2023-05-22T07:59:28;102197.72;;;19.84;43.15
19795;BME280;10057;59.402;17.866;2023-05-22T08:01:55;102202.63;;;19.94;43.32
19795;BME280;10057;59.402;17.866;2023-05-22T08:04:24;102196.81;;;20.01;42.71
19795;BME280;10057;59.402;17.866;2023-05-22T08:06:51;102200.06;;;20.08;42.47
19795;BME280;10057;59.402;17.866;2023-05-22T08:09:18;102197.03;;;20.14;42.29
19795;BME280;10057;59.402;17.866;2023-05-22T08:11:47;102194.06;;;20.19;42.16
19795;BME280;10057;59.402;17.866;2023-05-22T08:14:13;102198.25;;;20.24;41.78
19795;BME280;10057;59.402;17.866;2023-05-22T08:16:40;102202.84;;;20.22;41.05
19795;BME280;10057;59.402;17.866;2023-05-22T08:19:07;102199.28;;;20.22;41.69
19795;BME280;10057;59.402;17.866;2023-05-22T08:21:34;102188.19;;;20.28;41.67
19795;BME280;10057;59.402;17.866;2023-05-22T08:24:01;102195.75;;;20.37;41.57
19795;BME280;10057;59.402;17.866;2023-05-22T08:26:28;102188.19;;;20.44;41.51
19795;BME280;10057;59.402;17.866;2023-05-22T08:28:57;102184.38;;;20.48;41.79
19795;BME280;10057;59.402;17.866;2023-05-22T08:31:24;102181.97;;;20.59;41.50
19795;BME280;10057;59.402;17.866;2023-05-22T08:33:51;102180.66;;;20.66;41.55
19795;BME280;10057;59.402;17.866;2023-05-22T08:36:18;102184.75;;;20.73;41.19
19795;BME280;10057;59.402;17.866;2023-05-22T08:38:44;102181.53;;;20.82;41.01
19795;BME280;10057;59.402;17.866;2023-05-22T08:41:11;102178.56;;;20.87;40.79
19795;BME280;10057;59.402;17.866;2023-05-22T08:43:40;102178.09;;;20.95;40.57
19795;BME280;10057;59.402;17.866;2023-05-22T08:46:08;102167.06;;;20.99;40.54
19795;BME280;10057;59.402;17.866;2023-05-22T08:48:36;102167.75;;;21.03;40.18
19795;BME280;10057;59.402;17.866;2023-05-22T08:51:04;102162.38;;;21.03;40.13
19795;BME280;10057;59.402;17.866;2023-05-22T08:53:35;102164.88;;;21.06;40.04
19795;BME280;10057;59.402;17.866;2023-05-22T08:56:04;102158.16;;;21.13;40.28
19795;BME280;10057;59.402;17.866;2023-05-22T08:58:35;102145.16;;;21.20;40.10
19795;BME280;10057;59.402;17.866;2023-05-22T09:01:04;102154.72;;;21.25;40.03
19795;BME280;10057;59.402;17.866;2023-05-22T09:03:31;102151.53;;;21.33;39.86
19795;BME280;10057;59.402;17.866;2023-05-22T09:05:59;102146.69;;;21.40;39.83
19795;BME280;10057;59.402;17.866;2023-05-22T09:08:27;102138.88;;;21.49;39.57
19795;BME280;10057;59.402;17.866;2023-05-22T09:10:56;102148.47;;;21.55;39.61
19795;BME280;10057;59.402;17.866;2023-05-22T09:13:27;102141.03;;;21.59;39.24
19795;BME280;10057;59.402;17.866;2023-05-22T09:15:59;102139.88;;;21.63;39.33
19795;BME280;10057;59.402;17.866;2023-05-22T09:18:32;102141.34;;;21.68;39.28
19795;BME280;10057;59.402;17.866;2023-05-22T09:20:59;102127.72;;;21.70;39.21
19795;BME280;10057;59.402;17.866;2023-05-22T09:23:32;102126.50;;;21.75;39.23
19795;BME280;10057;59.402;17.866;2023-05-22T09:26:01;102122.44;;;21.83;39.27
19795;BME280;10057;59.402;17.866;2023-05-22T09:28:32;102124.44;;;21.93;39.24
19795;BME280;10057;59.402;17.866;2023-05-22T09:31:01;102112.19;;;22.02;38.95
19795;BME280;10057;59.402;17.866;2023-05-22T09:33:30;102109.88;;;22.10;38.69
19795;BME280;10057;59.402;17.866;2023-05-22T09:35:58;102126.41;;;22.20;38.78
19795;BME280;10057;59.402;17.866;2023-05-22T09:38:28;102111.41;;;22.29;38.53
19795;BME280;10057;59.402;17.866;2023-05-22T09:40:55;102108.09;;;22.38;38.41
19795;BME280;10057;59.402;17.866;2023-05-22T09:43:23;102112.81;;;22.48;38.20
19795;BME280;10057;59.402;17.866;2023-05-22T09:45:59;102111.13;;;22.60;38.61
19795;BME280;10057;59.402;17.866;2023-05-22T09:48:27;102101.66;;;22.67;37.99
19795;BME280;10057;59.402;17.866;2023-05-22T09:50:55;102100.66;;;22.68;37.73
19795;BME280;10057;59.402;17.866;2023-05-22T09:53:26;102094.47;;;22.66;37.29
19795;BME280;10057;59.402;17.866;2023-05-22T09:55:58;102084.75;;;22.64;37.55
19795;BME280;10057;59.402;17.866;2023-05-22T09:58:28;102089.84;;;22.68;37.38
19795;BME280;10057;59.402;17.866;2023-05-22T10:00:56;102094.28;;;22.69;37.28
19795;BME280;10057;59.402;17.866;2023-05-22T10:03:25;102084.47;;;22.81;37.72
19795;BME280;10057;59.402;17.866;2023-05-22T10:05:53;102078.81;;;22.99;37.75
19795;BME280;10057;59.402;17.866;2023-05-22T10:08:27;102072.03;;;23.18;37.24
19795;BME280;10057;59.402;17.866;2023-05-22T10:10:54;102067.59;;;23.30;36.90
19795;BME280;10057;59.402;17.866;2023-05-22T10:13:21;102081.13;;;23.43;36.99
19795;BME280;10057;59.402;17.866;2023-05-22T10:15:50;102069.75;;;23.51;36.42
19795;BME280;10057;59.402;17.866;2023-05-22T10:18:17;102067.59;;;23.56;36.14
19795;BME280;10057;59.402;17.866;2023-05-22T10:20:44;102060.97;;;23.60;36.50
19795;BME280;10057;59.402;17.866;2023-05-22T10:23:14;102056.22;;;23.63;35.93
19795;BME280;10057;59.402;17.866;2023-05-22T10:25:43;102046.56;;;23.59;35.99
19795;BME280;10057;59.402;17.866;2023-05-22T10:28:14;102043.53;;;23.64;35.76
19795;BME280;10057;59.402;17.866;2023-05-22T10:30:53;102041.69;;;23.64;36.21
19795;BME280;10057;59.402;17.866;2023-05-22T10:33:28;102046.47;;;23.74;36.45
19795;BME280;10057;59.402;17.866;2023-05-22T10:36:00;102032.16;;;23.84;36.53
19795;BME280;10057;59.402;17.866;2023-05-22T10:41:10;102025.72;;;24.22;36.61
19795;BME280;10057;59.402;17.866;2023-05-22T10:43:40;102016.69;;;24.34;36.42
19795;BME280;10057;59.402;17.866;2023-05-22T10:46:10;102018.94;;;24.41;35.64
19795;BME280;10057;59.402;17.866;2023-05-22T10:48:39;102015.94;;;24.32;35.66
19795;BME280;10057;59.402;17.866;2023-05-22T10:51:06;102016.31;;;24.39;35.80
19795;BME280;10057;59.402;17.866;2023-05-22T10:53:35;102009.75;;;24.54;35.26
19795;BME280;10057;59.402;17.866;2023-05-22T10:56:12;102011.53;;;24.67;35.44
19795;BME280;10057;59.402;17.866;2023-05-22T10:58:43;102009.63;;;24.80;35.00
19795;BME280;10057;59.402;17.866;2023-05-22T11:01:15;102000.50;;;24.92;35.19
19795;BME280;10057;59.402;17.866;2023-05-22T11:03:57;102001.00;;;24.97;34.64
19795;BME280;10057;59.402;17.866;2023-05-22T11:06:44;101995.59;;;24.97;34.91
19795;BME280;10057;59.402;17.866;2023-05-22T11:09:33;101991.16;;;25.08;34.56
19795;BME280;10057;59.402;17.866;2023-05-22T11:12:39;101987.00;;;25.15;34.51
19795;BME280;10057;59.402;17.866;2023-05-22T11:15:08;101984.00;;;25.06;33.99
19795;BME280;10057;59.402;17.866;2023-05-22T11:22:39;101974.13;;;25.05;34.47
19795;BME280;10057;59.402;17.866;2023-05-22T11:25:16;101975.63;;;25.10;33.51
19795;BME280;10057;59.402;17.866;2023-05-22T11:27:43;101970.78;;;25.02;33.71
19795;BME280;10057;59.402;17.866;2023-05-22T11:30:11;101968.31;;;24.99;34.04
19795;BME280;10057;59.402;17.866;2023-05-22T11:32:39;101968.44;;;24.97;34.56
19795;BME280;10057;59.402;17.866;2023-05-22T11:35:06;101967.72;;;25.06;34.44
19795;BME280;10057;59.402;17.866;2023-05-22T11:37:39;101962.19;;;25.19;33.90
19795;BME280;10057;59.402;17.866;2023-05-22T11:40:07;101958.63;;;25.30;33.58
19795;BME280;10057;59.402;17.866;2023-05-22T11:42:35;101957.78;;;25.41;33.75
19795;BME280;10057;59.402;17.866;2023-05-22T11:45:03;101954.28;;;25.50;33.33
19795;BME280;10057;59.402;17.866;2023-05-22T11:47:30;101952.06;;;25.55;33.59
19795;BME280;10057;59.402;17.866;2023-05-22T11:49:57;101949.97;;;25.59;33.53
19795;BME280;10057;59.402;17.866;2023-05-22T11:52:30;101945.28;;;25.61;33.98
19795;BME280;10057;59.402;17.866;2023-05-22T11:54:57;101946.50;;;25.68;33.77
19795;BME280;10057;59.402;17.866;2023-05-22T11:57:23;101941.78;;;25.81;34.08
19795;BME280;10057;59.402;17.866;2023-05-22T11:59:50;101947.56;;;25.88;32.60
19795;BME280;10057;59.402;17.866;2023-05-22T12:02:20;101938.81;;;25.73;32.90
19795;BME280;10057;59.402;17.866;2023-05-22T12:04:53;101944.25;;;25.73;32.95
19795;BME280;10057;59.402;17.866;2023-05-22T12:07:20;101941.69;;;25.71;32.61
19795;BME280;10057;59.402;17.866;2023-05-22T12:09:48;101927.13;;;25.61;33.17
19795;BME280;10057;59.402;17.866;2023-05-22T12:12:15;101933.03;;;25.66;33.27
19795;BME280;10057;59.402;17.866;2023-05-22T12:14:45;101922.66;;;25.83;32.94
19795;BME280;10057;59.402;17.866;2023-05-22T12:17:12;101922.34;;;25.97;32.81
19795;BME280;10057;59.402;17.866;2023-05-22T12:19:40;101915.41;;;26.04;33.06
19795;BME280;10057;59.402;17.866;2023-05-22T12:22:08;101919.47;;;26.10;33.20
19795;BME280;10057;59.402;17.866;2023-05-22T12:24:42;101917.56;;;26.21;32.63
19795;BME280;10057;59.402;17.866;2023-05-22T12:27:12;101896.88;;;26.30;32.94
19795;BME280;10057;59.402;17.866;2023-05-22T12:29:40;101900.75;;;26.49;33.11
19795;BME280;10057;59.402;17.866;2023-05-22T12:32:09;101896.97;;;26.61;32.53
19795;BME280;10057;59.402;17.866;2023-05-22T12:34:46;101889.31;;;26.76;32.39
19795;BME280;10057;59.402;17.866;2023-05-22T12:37:21;101878.97;;;27.00;32.24
19795;BME280;10057;59.402;17.866;2023-05-22T12:39:54;101888.59;;;27.25;31.72
19795;BME280;10057;59.402;17.866;2023-05-22T12:42:21;101891.25;;;27.56;31.25
19795;BME280;10057;59.402;17.866;2023-05-22T12:44:49;101879.53;;;27.84;30.90
19795;BME280;10057;59.402;17.866;2023-05-22T12:47:18;101886.84;;;28.13;30.54
19795;BME280;10057;59.402;17.866;2023-05-22T12:49:45;101878.53;;;28.24;30.28
19795;BME280;10057;59.402;17.866;2023-05-22T12:52:11;101885.28;;;28.40;29.58
19795;BME280;10057;59.402;17.866;2023-05-22T12:54:38;101871.66;;;28.40;29.68
19795;BME280;10057;59.402;17.866;2023-05-22T12:57:05;101872.78;;;28.47;29.97
19795;BME280;10057;59.402;17.866;2023-05-22T12:59:32;101876.81;;;28.52;29.27
19795;BME280;10057;59.402;17.866;2023-05-22T13:01:59;101869.63;;;28.51;29.51
19795;BME280;10057;59.402;17.866;2023-05-22T13:04:28;101867.31;;;28.56;29.23
19795;BME280;10057;59.402;17.866;2023-05-22T13:06:55;101863.00;;;28.54;29.29